sensor_id;sensor_type;location;lat;lon;timestamp;temperature;humidity
26907;DHT22;14472;56.880;16.658;2024-01-11T00:00:32;2.10;27.70
26907;DHT22;14472;56.880;16.658;2024-01-11T00:02:58;2.10;22.70
26907;DHT22;14472;56.880;16.658;2024-01-11T00:05:24;2.10;25.60
26907;DHT22;14472;56.880;16.658;2024-01-11T00:07:50;2.00;23.40
26907;DHT22;14472;56.880;16.658;2024-01-11T00:10:16;2.10;29.30
26907;DHT22;14472;56.880;16.658;2024-01-11T00:12:41;2.10;25.90
26907;DHT22;14472;56.880;16.658;2024-01-11T00:15:07;2.10;26.40
26907;DHT22;14472;56.880;16.658;2024-01-11T00:17:33;2.10;23.20
26907;DHT22;14472;56.880;16.658;2024-01-11T00:19:59;2.10;25.30
26907;DHT22;14472;56.880;16.658;2024-01-11T00:22:24;2.10;22.70
26907;DHT22;14472;56.880;16.658;2024-01-11T00:24:50;2.10;24.20
26907;DHT22;14472;56.880;16.658;2024-01-11T00:27:16;2.10;24.50
26907;DHT22;14472;56.880;16.658;2024-01-11T00:29:41;2.10;23.70
26907;DHT22;14472;56.880;16.658;2024-01-11T00:32:07;2.10;22.70
26907;DHT22;14472;56.880;16.658;2024-01-11T00:34:33;2.10;23.50
26907;DHT22;14472;56.880;16.658;2024-01-11T00:36:58;2.10;25.10
26907;DHT22;14472;56.880;16.658;2024-01-11T00:39:24;2.10;32.40
26907;DHT22;14472;56.880;16.658;2024-01-11T00:41:50;2.10;31.90
26907;DHT22;14472;56.880;16.658;2024-01-11T00:44:16;2.10;35.30
26907;DHT22;14472;56.880;16.658;2024-01-11T00:46:42;2.10;33.30
26907;DHT22;14472;56.880;16.658;2024-01-11T00:49:08;2.10;33.30
26907;DHT22;14472;56.880;16.658;2024-01-11T00:51:34;2.10;33.60
26907;DHT22;14472;56.880;16.658;2024-01-11T00:53:59;2.10;39.60
26907;DHT22;14472;56.880;16.658;2024-01-11T00:56:25;2.10;42.30
26907;DHT22;14472;56.880;16.658;2024-01-11T00:58:51;2.00;39.50
26907;DHT22;14472;56.880;16.658;2024-01-11T01:01:17;2.10;42.40
26907;DHT22;14472;56.880;16.658;2024-01-11T01:03:43;2.10;43.30
26907;DHT22;14472;56.880;16.658;2024-01-11T01:06:09;2.10;47.90
26907;DHT22;14472;56.880;16.658;2024-01-11T01:08:34;2.10;57.20
26907;DHT22;14472;56.880;16.658;2024-01-11T01:11:00;2.10;56.00
26907;DHT22;14472;56.880;16.658;2024-01-11T01:13:26;2.00;51.70
26907;DHT22;14472;56.880;16.658;2024-01-11T01:15:52;2.10;54.00
26907;DHT22;14472;56.880;16.658;2024-01-11T01:18:18;2.10;46.90
26907;DHT22;14472;56.880;16.658;2024-01-11T01:20:43;2.10;41.70
26907;DHT22;14472;56.880;16.658;2024-01-11T01:23:09;2.20;46.00
26907;DHT22;14472;56.880;16.658;2024-01-11T01:25:35;2.10;45.80
26907;DHT22;14472;56.880;16.658;2024-01-11T01:28:01;2.20;46.20
26907;DHT22;14472;56.880;16.658;2024-01-11T01:30:29;2.20;41.80
26907;DHT22;14472;56.880;16.658;2024-01-11T01:32:55;2.20;44.40
26907;DHT22;14472;56.880;16.658;2024-01-11T01:35:21;2.10;41.90
26907;DHT22;14472;56.880;16.658;2024-01-11T01:37:47;2.10;44.90
26907;DHT22;14472;56.880;16.658;2024-01-11T01:40:13;2.10;45.70
26907;DHT22;14472;56.880;16.658;2024-01-11T01:42:43;2.10;44.00
26907;DHT22;14472;56.880;16.658;2024-01-11T01:45:09;2.10;39.60
26907;DHT22;14472;56.880;16.658;2024-01-11T01:47:36;2.10;40.80
26907;DHT22;14472;56.880;16.658;2024-01-11T01:50:02;2.20;39.70
26907;DHT22;14472;56.880;16.658;2024-01-11T01:52:29;2.20;37.10
26907;DHT22;14472;56.880;16.658;2024-01-11T01:54:56;2.20;32.00
26907;DHT22;14472;56.880;16.658;2024-01-11T01:57:23;2.20;32.70
26907;DHT22;14472;56.880;16.658;2024-01-11T01:59:50;2.20;31.40
26907;DHT22;14472;56.880;16.658;2024-01-11T02:02:19;2.20;33.40
26907;DHT22;14472;56.880;16.658;2024-01-11T02:04:45;2.30;38.20
26907;DHT22;14472;56.880;16.658;2024-01-11T02:07:11;2.20;37.90
26907;DHT22;14472;56.880;16.658;2024-01-11T02:09:37;2.30;39.80
26907;DHT22;14472;56.880;16.658;2024-01-11T02:12:03;2.20;37.70
26907;DHT22;14472;56.880;16.658;2024-01-11T02:14:30;2.30;36.50
26907;DHT22;14472;56.880;16.658;2024-01-11T02:16:56;2.30;36.40
26907;DHT22;14472;56.880;16.658;2024-01-11T02:19:22;2.20;33.50
26907;DHT22;14472;56.880;16.658;2024-01-11T02:21:50;2.20;33.80
26907;DHT22;14472;56.880;16.658;2024-01-11T02:24:17;2.20;35.50
26907;DHT22;14472;56.880;16.658;2024-01-11T02:29:26;2.20;37.90
26907;DHT22;14472;56.880;16.658;2024-01-11T02:31:52;2.20;36.20
26907;DHT22;14472;56.880;16.658;2024-01-11T02:34:18;2.20;39.60
26907;DHT22;14472;56.880;16.658;2024-01-11T02:36:44;2.30;39.80
26907;DHT22;14472;56.880;16.658;2024-01-11T02:39:11;2.30;38.10
26907;DHT22;14472;56.880;16.658;2024-01-11T02:41:37;2.30;40.60
26907;DHT22;14472;56.880;16.658;2024-01-11T02:44:03;2.30;37.00
26907;DHT22;14472;56.880;16.658;2024-01-11T02:46:30;2.30;37.20
26907;DHT22;14472;56.880;16.658;2024-01-11T02:48:56;2.30;37.50
26907;DHT22;14472;56.880;16.658;2024-01-11T02:51:21;2.30;39.70
26907;DHT22;14472;56.880;16.658;2024-01-11T02:53:47;2.30;42.30
26907;DHT22;14472;56.880;16.658;2024-01-11T02:56:13;2.30;37.40
26907;DHT22;14472;56.880;16.658;2024-01-11T02:58:38;2.30;39.80
26907;DHT22;14472;56.880;16.658;2024-01-11T03:01:04;2.30;43.60
26907;DHT22;14472;56.880;16.658;2024-01-11T03:03:30;2.30;43.20
26907;DHT22;14472;56.880;16.658;2024-01-11T03:05:55;2.30;43.30
26907;DHT22;14472;56.880;16.658;2024-01-11T03:08:21;2.30;42.30
26907;DHT22;14472;56.880;16.658;2024-01-11T03:10:47;2.30;44.10
26907;DHT22;14472;56.880;16.658;2024-01-11T03:13:12;2.30;45.10
26907;DHT22;14472;56.880;16.658;2024-01-11T03:15:38;2.40;46.00
26907;DHT22;14472;56.880;16.658;2024-01-11T03:18:04;2.30;47.00
26907;DHT22;14472;56.880;16.658;2024-01-11T03:20:30;2.40;46.00
26907;DHT22;14472;56.880;16.658;2024-01-11T03:22:55;2.30;45.90
26907;DHT22;14472;56.880;16.658;2024-01-11T03:25:21;2.40;50.00
26907;DHT22;14472;56.880;16.658;2024-01-11T03:27:47;2.40;46.00
26907;DHT22;14472;56.880;16.658;2024-01-11T03:30:13;2.40;42.00
26907;DHT22;14472;56.880;16.658;2024-01-11T03:32:38;2.40;44.80
26907;DHT22;14472;56.880;16.658;2024-01-11T03:35:07;2.40;49.40
26907;DHT22;14472;56.880;16.658;2024-01-11T03:37:33;2.40;45.80
26907;DHT22;14472;56.880;16.658;2024-01-11T03:40:00;2.40;44.90
26907;DHT22;14472;56.880;16.658;2024-01-11T03:42:25;2.40;50.10
26907;DHT22;14472;56.880;16.658;2024-01-11T03:44:51;2.40;48.70
26907;DHT22;14472;56.880;16.658;2024-01-11T03:47:17;2.40;41.70
26907;DHT22;14472;56.880;16.658;2024-01-11T03:49:42;2.40;39.80
26907;DHT22;14472;56.880;16.658;2024-01-11T03:52:08;2.40;41.50
26907;DHT22;14472;56.880;16.658;2024-01-11T03:54:34;2.40;40.00
26907;DHT22;14472;56.880;16.658;2024-01-11T03:56:59;2.40;41.20
26907;DHT22;14472;56.880;16.658;2024-01-11T03:59:25;2.40;42.50
26907;DHT22;14472;56.880;16.658;2024-01-11T04:01:51;2.40;45.70
26907;DHT22;14472;56.880;16.658;2024-01-11T04:04:18;2.40;43.20
26907;DHT22;14472;56.880;16.658;2024-01-11T04:06:43;2.40;43.70
26907;DHT22;14472;56.880;16.658;2024-01-11T04:09:10;2.40;41.00
26907;DHT22;14472;56.880;16.658;2024-01-11T04:11:36;2.40;41.10
26907;DHT22;14472;56.880;16.658;2024-01-11T04:14:02;2.40;40.60
26907;DHT22;14472;56.880;16.658;2024-01-11T04:16:28;2.40;39.80
26907;DHT22;14472;56.880;16.658;2024-01-11T04:18:53;2.40;43.30
26907;DHT22;14472;56.880;16.658;2024-01-11T04:21:23;2.40;41.70
26907;DHT22;14472;56.880;16.658;2024-01-11T04:23:49;2.40;44.70
26907;DHT22;14472;56.880;16.658;2024-01-11T04:26:16;2.40;42.00
26907;DHT22;14472;56.880;16.658;2024-01-11T04:28:42;2.40;39.60
26907;DHT22;14472;56.880;16.658;2024-01-11T04:31:10;2.40;37.50
26907;DHT22;14472;56.880;16.658;2024-01-11T04:33:39;2.40;36.00
26907;DHT22;14472;56.880;16.658;2024-01-11T04:36:05;2.40;40.80
26907;DHT22;14472;56.880;16.658;2024-01-11T04:38:31;2.40;38.40
26907;DHT22;14472;56.880;16.658;2024-01-11T04:40:57;2.40;34.90
26907;DHT22;14472;56.880;16.658;2024-01-11T04:43:22;2.40;33.60
26907;DHT22;14472;56.880;16.658;2024-01-11T04:45:48;2.40;37.60
26907;DHT22;14472;56.880;16.658;2024-01-11T04:48:14;2.40;38.30
26907;DHT22;14472;56.880;16.658;2024-01-11T04:50:39;2.40;39.30
26907;DHT22;14472;56.880;16.658;2024-01-11T04:53:05;2.40;37.50
26907;DHT22;14472;56.880;16.658;2024-01-11T04:55:30;2.40;33.60
26907;DHT22;14472;56.880;16.658;2024-01-11T04:57:56;2.40;36.30
26907;DHT22;14472;56.880;16.658;2024-01-11T05:00:22;2.40;33.50
26907;DHT22;14472;56.880;16.658;2024-01-11T05:02:47;2.40;33.20
26907;DHT22;14472;56.880;16.658;2024-01-11T05:05:13;2.40;30.70
26907;DHT22;14472;56.880;16.658;2024-01-11T05:07:39;2.30;33.50
26907;DHT22;14472;56.880;16.658;2024-01-11T05:10:05;2.40;33.70
26907;DHT22;14472;56.880;16.658;2024-01-11T05:12:31;2.40;35.20
26907;DHT22;14472;56.880;16.658;2024-01-11T05:14:56;2.40;34.80
26907;DHT22;14472;56.880;16.658;2024-01-11T05:17:22;2.40;37.20
26907;DHT22;14472;56.880;16.658;2024-01-11T05:19:48;2.40;39.80
26907;DHT22;14472;56.880;16.658;2024-01-11T05:22:14;2.40;39.80
26907;DHT22;14472;56.880;16.658;2024-01-11T05:24:40;2.40;39.10
26907;DHT22;14472;56.880;16.658;2024-01-11T05:27:06;2.40;37.70
26907;DHT22;14472;56.880;16.658;2024-01-11T05:29:31;2.40;38.70
26907;DHT22;14472;56.880;16.658;2024-01-11T05:31:57;2.40;39.80
26907;DHT22;14472;56.880;16.658;2024-01-11T05:34:23;2.40;39.80
26907;DHT22;14472;56.880;16.658;2024-01-11T05:36:49;2.40;40.00
26907;DHT22;14472;56.880;16.658;2024-01-11T05:39:14;2.40;39.80
26907;DHT22;14472;56.880;16.658;2024-01-11T05:41:44;2.40;39.80
26907;DHT22;14472;56.880;16.658;2024-01-11T05:44:10;2.40;40.00
26907;DHT22;14472;56.880;16.658;2024-01-11T05:46:36;2.40;40.40
26907;DHT22;14472;56.880;16.658;2024-01-11T05:49:01;2.40;46.20
26907;DHT22;14472;56.880;16.658;2024-01-11T05:51:27;2.40;43.80
26907;DHT22;14472;56.880;16.658;2024-01-11T05:53:53;2.40;39.80
26907;DHT22;14472;56.880;16.658;2024-01-11T05:56:19;2.50;40.60
26907;DHT22;14472;56.880;16.658;2024-01-11T05:58:46;2.40;40.70
26907;DHT22;14472;56.880;16.658;2024-01-11T06:01:11;2.50;38.70
26907;DHT22;14472;56.880;16.658;2024-01-11T06:03:37;2.50;39.90
26907;DHT22;14472;56.880;16.658;2024-01-11T06:06:05;2.40;37.50
26907;DHT22;14472;56.880;16.658;2024-01-11T06:08:31;2.50;38.50
26907;DHT22;14472;56.880;16.658;2024-01-11T06:10:58;2.50;39.90
26907;DHT22;14472;56.880;16.658;2024-01-11T06:13:23;2.40;42.60
26907;DHT22;14472;56.880;16.658;2024-01-11T06:15:49;2.50;39.90
26907;DHT22;14472;56.880;16.658;2024-01-11T06:18:16;2.50;41.00
26907;DHT22;14472;56.880;16.658;2024-01-11T06:20:41;2.50;45.30
26907;DHT22;14472;56.880;16.658;2024-01-11T06:23:07;2.50;41.70
26907;DHT22;14472;56.880;16.658;2024-01-11T06:25:33;2.40;43.50
26907;DHT22;14472;56.880;16.658;2024-01-11T06:27:59;2.50;43.50
26907;DHT22;14472;56.880;16.658;2024-01-11T06:30:25;2.40;41.10
26907;DHT22;14472;56.880;16.658;2024-01-11T06:32:50;2.50;39.60
26907;DHT22;14472;56.880;16.658;2024-01-11T06:35:16;2.50;39.90
26907;DHT22;14472;56.880;16.658;2024-01-11T06:37:42;2.50;42.50
26907;DHT22;14472;56.880;16.658;2024-01-11T06:40:08;2.50;46.00
26907;DHT22;14472;56.880;16.658;2024-01-11T06:42:34;2.50;40.10
26907;DHT22;14472;56.880;16.658;2024-01-11T06:45:00;2.50;39.90
26907;DHT22;14472;56.880;16.658;2024-01-11T06:47:26;2.50;39.90
26907;DHT22;14472;56.880;16.658;2024-01-11T06:49:53;2.50;43.60
26907;DHT22;14472;56.880;16.658;2024-01-11T06:52:18;2.50;42.90
26907;DHT22;14472;56.880;16.658;2024-01-11T06:54:45;2.50;40.90
26907;DHT22;14472;56.880;16.658;2024-01-11T06:57:11;2.40;44.30
26907;DHT22;14472;56.880;16.658;2024-01-11T06:59:36;2.50;46.00
26907;DHT22;14472;56.880;16.658;2024-01-11T07:02:03;2.50;46.00
26907;DHT22;14472;56.880;16.658;2024-01-11T07:04:29;2.40;46.30
26907;DHT22;14472;56.880;16.658;2024-01-11T07:06:55;2.50;46.90
26907;DHT22;14472;56.880;16.658;2024-01-11T07:09:20;2.50;45.50
26907;DHT22;14472;56.880;16.658;2024-01-11T07:11:46;2.50;46.10
26907;DHT22;14472;56.880;16.658;2024-01-11T07:14:12;2.50;48.40
26907;DHT22;14472;56.880;16.658;2024-01-11T07:16:37;2.50;46.00
26907;DHT22;14472;56.880;16.658;2024-01-11T07:19:03;2.50;46.10
26907;DHT22;14472;56.880;16.658;2024-01-11T07:21:29;2.40;43.40
26907;DHT22;14472;56.880;16.658;2024-01-11T07:23:57;2.50;46.00
26907;DHT22;14472;56.880;16.658;2024-01-11T07:26:23;2.50;46.00
26907;DHT22;14472;56.880;16.658;2024-01-11T07:28:49;2.50;45.40
26907;DHT22;14472;56.880;16.658;2024-01-11T07:31:16;2.50;46.00
26907;DHT22;14472;56.880;16.658;2024-01-11T07:33:41;2.50;48.90
26907;DHT22;14472;56.880;16.658;2024-01-11T07:36:07;2.50;50.30
26907;DHT22;14472;56.880;16.658;2024-01-11T07:38:34;2.50;52.10
26907;DHT22;14472;56.880;16.658;2024-01-11T07:41:00;2.50;52.20
26907;DHT22;14472;56.880;16.658;2024-01-11T07:43:27;2.50;53.70
26907;DHT22;14472;56.880;16.658;2024-01-11T07:45:54;2.50;53.60
26907;DHT22;14472;56.880;16.658;2024-01-11T07:48:24;2.50;52.10
26907;DHT22;14472;56.880;16.658;2024-01-11T07:50:50;2.50;50.20
26907;DHT22;14472;56.880;16.658;2024-01-11T07:53:16;2.50;52.10
26907;DHT22;14472;56.880;16.658;2024-01-11T07:55:42;2.50;52.70
26907;DHT22;14472;56.880;16.658;2024-01-11T07:58:08;2.50;52.10
26907;DHT22;14472;56.880;16.658;2024-01-11T08:00:34;2.50;48.90
26907;DHT22;14472;56.880;16.658;2024-01-11T08:03:00;2.50;46.10
26907;DHT22;14472;56.880;16.658;2024-01-11T08:05:26;2.50;52.10
26907;DHT22;14472;56.880;16.658;2024-01-11T08:07:51;2.50;52.10
26907;DHT22;14472;56.880;16.658;2024-01-11T08:10:17;2.50;53.00
26907;DHT22;14472;56.880;16.658;2024-01-11T08:12:43;2.50;51.00
26907;DHT22;14472;56.880;16.658;2024-01-11T08:15:09;2.60;50.40
26907;DHT22;14472;56.880;16.658;2024-01-11T08:17:44;2.50;50.00
26907;DHT22;14472;56.880;16.658;2024-01-11T08:20:11;2.50;52.10
26907;DHT22;14472;56.880;16.658;2024-01-11T08:22:40;2.50;50.40
26907;DHT22;14472;56.880;16.658;2024-01-11T08:25:06;2.60;54.20
26907;DHT22;14472;56.880;16.658;2024-01-11T08:27:32;2.60;52.20
26907;DHT22;14472;56.880;16.658;2024-01-11T08:29:59;2.60;48.00
26907;DHT22;14472;56.880;16.658;2024-01-11T08:32:26;2.60;49.00
26907;DHT22;14472;56.880;16.658;2024-01-11T08:34:52;2.60;43.70
26907;DHT22;14472;56.880;16.658;2024-01-11T08:37:17;2.60;43.30
26907;DHT22;14472;56.880;16.658;2024-01-11T08:39:43;2.60;45.50
26907;DHT22;14472;56.880;16.658;2024-01-11T08:42:11;2.70;45.00
26907;DHT22;14472;56.880;16.658;2024-01-11T08:44:41;2.70;40.40
26907;DHT22;14472;56.880;16.658;2024-01-11T08:47:07;2.70;43.50
26907;DHT22;14472;56.880;16.658;2024-01-11T08:49:32;2.70;45.00
26907;DHT22;14472;56.880;16.658;2024-01-11T08:51:58;2.80;43.90
26907;DHT22;14472;56.880;16.658;2024-01-11T08:54:24;2.80;46.30
26907;DHT22;14472;56.880;16.658;2024-01-11T08:56:49;2.80;48.60
26907;DHT22;14472;56.880;16.658;2024-01-11T08:59:15;2.80;47.90
26907;DHT22;14472;56.880;16.658;2024-01-11T09:01:41;2.80;46.30
26907;DHT22;14472;56.880;16.658;2024-01-11T09:04:07;2.80;48.60
26907;DHT22;14472;56.880;16.658;2024-01-11T09:06:33;2.80;46.30
26907;DHT22;14472;56.880;16.658;2024-01-11T09:08:59;2.90;46.40
26907;DHT22;14472;56.880;16.658;2024-01-11T09:11:25;2.80;46.60
26907;DHT22;14472;56.880;16.658;2024-01-11T09:13:51;2.90;44.10
26907;DHT22;14472;56.880;16.658;2024-01-11T09:16:17;2.90;42.90
26907;DHT22;14472;56.880;16.658;2024-01-11T09:18:45;2.90;41.10
26907;DHT22;14472;56.880;16.658;2024-01-11T09:21:11;3.00;37.70
26907;DHT22;14472;56.880;16.658;2024-01-11T09:23:37;3.00;36.20
26907;DHT22;14472;56.880;16.658;2024-01-11T09:26:03;3.00;36.50
26907;DHT22;14472;56.880;16.658;2024-01-11T09:28:29;3.00;34.20
26907;DHT22;14472;56.880;16.658;2024-01-11T09:30:54;3.00;31.90
26907;DHT22;14472;56.880;16.658;2024-01-11T09:33:25;3.00;31.70
26907;DHT22;14472;56.880;16.658;2024-01-11T09:35:51;3.10;32.10
26907;DHT22;14472;56.880;16.658;2024-01-11T09:38:17;3.10;31.50
26907;DHT22;14472;56.880;16.658;2024-01-11T09:40:43;3.10;28.60
26907;DHT22;14472;56.880;16.658;2024-01-11T09:43:09;3.10;29.70
26907;DHT22;14472;56.880;16.658;2024-01-11T09:45:37;3.10;30.20
26907;DHT22;14472;56.880;16.658;2024-01-11T09:48:05;3.20;30.00
26907;DHT22;14472;56.880;16.658;2024-01-11T09:50:32;3.10;29.20
26907;DHT22;14472;56.880;16.658;2024-01-11T09:52:58;3.10;30.90
26907;DHT22;14472;56.880;16.658;2024-01-11T09:55:28;3.10;34.80
26907;DHT22;14472;56.880;16.658;2024-01-11T09:57:56;3.20;37.60
26907;DHT22;14472;56.880;16.658;2024-01-11T10:00:25;3.20;35.40
26907;DHT22;14472;56.880;16.658;2024-01-11T10:02:52;3.20;36.30
26907;DHT22;14472;56.880;16.658;2024-01-11T10:05:18;3.20;37.30
26907;DHT22;14472;56.880;16.658;2024-01-11T10:07:44;3.20;39.30
26907;DHT22;14472;56.880;16.658;2024-01-11T10:10:11;3.20;40.40
26907;DHT22;14472;56.880;16.658;2024-01-11T10:12:40;3.20;40.40
26907;DHT22;14472;56.880;16.658;2024-01-11T10:15:07;3.30;40.70
26907;DHT22;14472;56.880;16.658;2024-01-11T10:17:41;3.20;40.50
26907;DHT22;14472;56.880;16.658;2024-01-11T10:20:08;3.30;41.80
26907;DHT22;14472;56.880;16.658;2024-01-11T10:22:36;3.20;42.40
26907;DHT22;14472;56.880;16.658;2024-01-11T10:25:09;3.20;46.60
26907;DHT22;14472;56.880;16.658;2024-01-11T10:27:41;3.20;47.50
26907;DHT22;14472;56.880;16.658;2024-01-11T10:30:08;3.20;48.90
26907;DHT22;14472;56.880;16.658;2024-01-11T10:32:34;3.20;53.10
26907;DHT22;14472;56.880;16.658;2024-01-11T10:35:01;3.20;50.00
26907;DHT22;14472;56.880;16.658;2024-01-11T10:37:31;3.20;52.30
26907;DHT22;14472;56.880;16.658;2024-01-11T10:39:58;3.20;52.70
26907;DHT22;14472;56.880;16.658;2024-01-11T10:42:29;3.20;52.70
26907;DHT22;14472;56.880;16.658;2024-01-11T10:44:59;3.20;52.70
26907;DHT22;14472;56.880;16.658;2024-01-11T10:47:30;3.30;52.80
26907;DHT22;14472;56.880;16.658;2024-01-11T10:49:57;3.30;52.80
26907;DHT22;14472;56.880;16.658;2024-01-11T10:52:28;3.30;52.70
26907;DHT22;14472;56.880;16.658;2024-01-11T10:54:57;3.30;52.70
26907;DHT22;14472;56.880;16.658;2024-01-11T10:57:24;3.30;52.70
26907;DHT22;14472;56.880;16.658;2024-01-11T10:59:51;3.30;52.70
26907;DHT22;14472;56.880;16.658;2024-01-11T11:02:18;3.30;52.70
26907;DHT22;14472;56.880;16.658;2024-01-11T11:04:45;3.30;52.80
26907;DHT22;14472;56.880;16.658;2024-01-11T11:07:12;3.40;52.80
26907;DHT22;14472;56.880;16.658;2024-01-11T11:09:40;3.30;50.00
26907;DHT22;14472;56.880;16.658;2024-01-11T11:12:10;3.30;50.40
26907;DHT22;14472;56.880;16.658;2024-01-11T11:14:36;3.40;50.90
26907;DHT22;14472;56.880;16.658;2024-01-11T11:17:03;3.40;48.30
26907;DHT22;14472;56.880;16.658;2024-01-11T11:19:30;3.30;49.00
26907;DHT22;14472;56.880;16.658;2024-01-11T11:21:56;3.40;49.40
26907;DHT22;14472;56.880;16.658;2024-01-11T11:24:22;3.40;49.10
26907;DHT22;14472;56.880;16.658;2024-01-11T11:26:48;3.40;50.20
26907;DHT22;14472;56.880;16.658;2024-01-11T11:29:15;3.30;48.40
26907;DHT22;14472;56.880;16.658;2024-01-11T11:31:45;3.30;48.20
26907;DHT22;14472;56.880;16.658;2024-01-11T11:34:20;3.30;49.70
26907;DHT22;14472;56.880;16.658;2024-01-11T11:36:50;3.30;50.80
26907;DHT22;14472;56.880;16.658;2024-01-11T11:39:20;3.30;52.70
26907;DHT22;14472;56.880;16.658;2024-01-11T11:41:47;3.30;50.90
26907;DHT22;14472;56.880;16.658;2024-01-11T11:44:16;3.30;51.40
26907;DHT22;14472;56.880;16.658;2024-01-11T11:46:42;3.30;50.50
26907;DHT22;14472;56.880;16.658;2024-01-11T11:49:09;3.30;51.30
26907;DHT22;14472;56.880;16.658;2024-01-11T11:51:39;3.30;49.70
26907;DHT22;14472;56.880;16.658;2024-01-11T11:54:06;3.30;46.80
26907;DHT22;14472;56.880;16.658;2024-01-11T11:56:35;3.30;45.00
26907;DHT22;14472;56.880;16.658;2024-01-11T11:59:03;3.30;42.90
26907;DHT22;14472;56.880;16.658;2024-01-11T12:01:29;3.30;42.90
26907;DHT22;14472;56.880;16.658;2024-01-11T12:03:57;3.30;43.00
26907;DHT22;14472;56.880;16.658;2024-01-11T12:06:23;3.30;41.90
26907;DHT22;14472;56.880;16.658;2024-01-11T12:08:52;3.30;41.00
26907;DHT22;14472;56.880;16.658;2024-01-11T12:11:21;3.30;38.40
26907;DHT22;14472;56.880;16.658;2024-01-11T12:13:48;3.30;34.20
26907;DHT22;14472;56.880;16.658;2024-01-11T12:16:15;3.30;29.30
26907;DHT22;14472;56.880;16.658;2024-01-11T12:18:41;3.40;26.60
26907;DHT22;14472;56.880;16.658;2024-01-11T12:21:07;3.40;25.20
26907;DHT22;14472;56.880;16.658;2024-01-11T12:23:34;3.30;25.30
26907;DHT22;14472;56.880;16.658;2024-01-11T12:26:05;3.30;23.40
26907;DHT22;14472;56.880;16.658;2024-01-11T12:28:33;3.30;23.40
26907;DHT22;14472;56.880;16.658;2024-01-11T12:30:59;3.30;23.80
26907;DHT22;14472;56.880;16.658;2024-01-11T12:33:26;3.30;26.70
26907;DHT22;14472;56.880;16.658;2024-01-11T12:35:53;3.30;25.80
26907;DHT22;14472;56.880;16.658;2024-01-11T12:38:19;3.30;24.50
26907;DHT22;14472;56.880;16.658;2024-01-11T12:40:46;3.30;27.30
26907;DHT22;14472;56.880;16.658;2024-01-11T12:43:12;3.30;27.70
26907;DHT22;14472;56.880;16.658;2024-01-11T12:45:39;3.30;28.40
26907;DHT22;14472;56.880;16.658;2024-01-11T12:48:07;3.30;27.40
26907;DHT22;14472;56.880;16.658;2024-01-11T12:50:34;3.30;28.40
26907;DHT22;14472;56.880;16.658;2024-01-11T12:53:19;3.30;25.80
26907;DHT22;14472;56.880;16.658;2024-01-11T12:55:45;3.30;24.20
26907;DHT22;14472;56.880;16.658;2024-01-11T12:58:11;3.30;26.40
26907;DHT22;14472;56.880;16.658;2024-01-11T13:00:38;3.30;25.50
26907;DHT22;14472;56.880;16.658;2024-01-11T13:03:04;3.30;23.40
26907;DHT22;14472;56.880;16.658;2024-01-11T13:05:31;3.30;24.60
26907;DHT22;14472;56.880;16.658;2024-01-11T13:08:09;3.30;24.30
26907;DHT22;14472;56.880;16.658;2024-01-11T13:10:36;3.30;24.40
26907;DHT22;14472;56.880;16.658;2024-01-11T13:13:02;3.20;23.60
26907;DHT22;14472;56.880;16.658;2024-01-11T13:15:28;3.30;24.60
26907;DHT22;14472;56.880;16.658;2024-01-11T13:18:00;3.30;24.80
26907;DHT22;14472;56.880;16.658;2024-01-11T13:20:27;3.20;24.50
26907;DHT22;14472;56.880;16.658;2024-01-11T13:23:18;3.20;25.60
26907;DHT22;14472;56.880;16.658;2024-01-11T13:25:46;3.10;23.30
26907;DHT22;14472;56.880;16.658;2024-01-11T13:28:13;3.10;22.10
26907;DHT22;14472;56.880;16.658;2024-01-11T13:30:43;3.10;23.30
26907;DHT22;14472;56.880;16.658;2024-01-11T13:33:09;3.10;21.30
26907;DHT22;14472;56.880;16.658;2024-01-11T13:35:39;3.10;21.00
26907;DHT22;14472;56.880;16.658;2024-01-11T13:38:05;3.10;19.80
26907;DHT22;14472;56.880;16.658;2024-01-11T13:40:31;3.10;18.10
26907;DHT22;14472;56.880;16.658;2024-01-11T13:42:58;3.10;14.20
26907;DHT22;14472;56.880;16.658;2024-01-11T13:45:24;3.10;17.50
26907;DHT22;14472;56.880;16.658;2024-01-11T13:47:51;3.10;16.60
26907;DHT22;14472;56.880;16.658;2024-01-11T13:50:18;3.00;18.10
26907;DHT22;14472;56.880;16.658;2024-01-11T13:52:44;3.10;18.20
26907;DHT22;14472;56.880;16.658;2024-01-11T13:55:11;3.10;18.20
26907;DHT22;14472;56.880;16.658;2024-01-11T13:57:37;3.00;17.40
26907;DHT22;14472;56.880;16.658;2024-01-11T14:00:04;3.00;18.50
26907;DHT22;14472;56.880;16.658;2024-01-11T14:02:30;3.00;19.50
26907;DHT22;14472;56.880;16.658;2024-01-11T14:04:55;3.00;18.20
26907;DHT22;14472;56.880;16.658;2024-01-11T14:07:21;3.00;18.10
26907;DHT22;14472;56.880;16.658;2024-01-11T14:09:47;3.00;16.40
26907;DHT22;14472;56.880;16.658;2024-01-11T14:12:13;3.00;16.70
26907;DHT22;14472;56.880;16.658;2024-01-11T14:14:41;3.00;14.90
26907;DHT22;14472;56.880;16.658;2024-01-11T14:17:08;2.90;17.80
26907;DHT22;14472;56.880;16.658;2024-01-11T14:19:33;2.90;18.10
26907;DHT22;14472;56.880;16.658;2024-01-11T14:21:59;2.90;15.30
26907;DHT22;14472;56.880;16.658;2024-01-11T14:24:25;2.90;16.80
26907;DHT22;14472;56.880;16.658;2024-01-11T14:26:51;2.80;20.10
26907;DHT22;14472;56.880;16.658;2024-01-11T14:29:17;2.90;23.10
26907;DHT22;14472;56.880;16.658;2024-01-11T14:31:42;2.80;23.10
26907;DHT22;14472;56.880;16.658;2024-01-11T14:34:09;2.80;23.10
26907;DHT22;14472;56.880;16.658;2024-01-11T14:36:36;2.80;23.10
26907;DHT22;14472;56.880;16.658;2024-01-11T14:39:02;2.80;27.30
26907;DHT22;14472;56.880;16.658;2024-01-11T14:41:30;2.80;28.10
26907;DHT22;14472;56.880;16.658;2024-01-11T14:43:57;2.80;28.20
26907;DHT22;14472;56.880;16.658;2024-01-11T14:46:23;2.80;29.60
26907;DHT22;14472;56.880;16.658;2024-01-11T14:48:49;2.80;30.70
26907;DHT22;14472;56.880;16.658;2024-01-11T14:51:15;2.80;32.00
26907;DHT22;14472;56.880;16.658;2024-01-11T14:53:41;2.80;32.50
26907;DHT22;14472;56.880;16.658;2024-01-11T14:56:07;2.80;33.90
26907;DHT22;14472;56.880;16.658;2024-01-11T14:58:33;2.80;33.90
26907;DHT22;14472;56.880;16.658;2024-01-11T15:00:58;2.80;33.90
26907;DHT22;14472;56.880;16.658;2024-01-11T15:03:24;2.80;33.30
26907;DHT22;14472;56.880;16.658;2024-01-11T15:05:53;2.80;35.20
26907;DHT22;14472;56.880;16.658;2024-01-11T15:08:19;2.80;33.90
26907;DHT22;14472;56.880;16.658;2024-01-11T15:10:46;2.80;33.90
26907;DHT22;14472;56.880;16.658;2024-01-11T15:13:12;2.80;32.30
26907;DHT22;14472;56.880;16.658;2024-01-11T15:15:37;2.80;33.90
26907;DHT22;14472;56.880;16.658;2024-01-11T15:18:04;2.80;35.00
26907;DHT22;14472;56.880;16.658;2024-01-11T15:20:30;2.80;33.90
26907;DHT22;14472;56.880;16.658;2024-01-11T15:22:55;2.80;37.40
26907;DHT22;14472;56.880;16.658;2024-01-11T15:25:21;2.80;40.20
26907;DHT22;14472;56.880;16.658;2024-01-11T15:27:47;2.80;45.20